Time;durP1;ratioP1;P1;durP2;ratioP2;P2;SDS_P1;SDS_P2;PMS_P1;PMS_P2;Temp;Humidity;BMP_temperature;BMP_pressure;BME280_temperature;BME280_humidity;BME280_pressure;Samples;Min_cycle;Max_cycle;Signal;HPM_P1;HPM_P2
2023/02/26 00:01:47;;;;;;;2.53;1.95;;;15.50;50.60;;;;;;5115557;28;20694;-52
2023/02/26 00:04:13;;;;;;;2.97;1.65;;;15.50;50.70;;;;;;5116577;28;20177;-55
2023/02/26 00:06:51;;;;;;;2.70;1.75;;;15.50;50.70;;;;;;5116082;28;20171;-52
2023/02/26 00:09:16;;;;;;;2.45;1.80;;;15.50;50.70;;;;;;5115818;28;20176;-51
2023/02/26 00:11:42;;;;;;;2.03;1.50;;;15.50;50.70;;;;;;5116168;28;20685;-52
2023/02/26 00:14:10;;;;;;;2.00;1.80;;;15.50;50.80;;;;;;5116351;28;20169;-49
2023/02/26 00:16:35;;;;;;;2.97;2.13;;;15.50;50.70;;;;;;5114077;28;20264;-53
2023/02/26 00:19:03;;;;;;;2.65;1.90;;;15.50;50.80;;;;;;5116249;28;20315;-54
2023/02/26 00:21:29;;;;;;;2.58;2.08;;;15.50;50.80;;;;;;5115511;28;20173;-52
2023/02/26 00:23:55;;;;;;;2.22;1.95;;;15.40;50.80;;;;;;5115877;28;20220;-52
2023/02/26 00:26:20;;;;;;;3.22;1.80;;;15.40;50.80;;;;;;5116207;28;20177;-54
2023/02/26 00:28:46;;;;;;;2.47;1.65;;;15.40;50.80;;;;;;5113538;28;20181;-52
2023/02/26 00:31:13;;;;;;;2.80;2.00;;;15.40;50.80;;;;;;5115590;28;20201;-52
2023/02/26 00:33:39;;;;;;;2.20;2.00;;;15.40;50.80;;;;;;5115536;27;20533;-52
2023/02/26 00:36:14;;;;;;;2.15;1.95;;;15.40;50.80;;;;;;5115316;28;20177;-51
2023/02/26 00:38:40;;;;;;;2.00;1.77;;;15.40;50.90;;;;;;5114374;28;20273;-50
2023/02/26 00:41:07;;;;;;;2.70;1.70;;;15.30;50.80;;;;;;5114574;28;20648;-55
2023/02/26 00:43:33;;;;;;;4.72;1.85;;;15.40;50.90;;;;;;5114762;28;20240;-54
2023/02/26 00:46:21;;;;;;;2.13;1.65;;;15.30;50.90;;;;;;5115991;28;20632;-54
2023/02/26 00:49:17;;;;;;;3.25;2.03;;;15.30;50.90;;;;;;5115655;28;20172;-50
2023/02/26 00:51:45;;;;;;;2.33;1.60;;;15.30;51.00;;;;;;5114702;28;20204;-54
2023/02/26 00:54:22;;;;;;;1.88;1.50;;;15.30;51.00;;;;;;5115738;28;20195;-50
2023/02/26 00:56:48;;;;;;;3.40;2.30;;;15.30;51.00;;;;;;5097047;28;20196;-55
2023/02/26 00:59:14;;;;;;;1.90;1.70;;;15.30;51.00;;;;;;5115208;28;20571;-50
2023/02/26 01:01:40;;;;;;;2.50;1.83;;;15.30;51.00;;;;;;5115225;28;20179;-55
2023/02/26 01:04:06;;;;;;;2.28;1.80;;;15.30;51.00;;;;;;5114720;28;20214;-54
2023/02/26 01:06:32;;;;;;;1.65;1.50;;;15.30;51.10;;;;;;5115059;28;20181;-53
2023/02/26 01:09:22;;;;;;;3.25;1.85;;;15.30;51.00;;;;;;5114406;28;20197;-51
2023/02/26 01:11:48;;;;;;;2.92;1.65;;;15.20;51.00;;;;;;5103146;28;20220;-51
2023/02/26 01:14:14;;;;;;;2.83;1.90;;;15.20;51.10;;;;;;5115251;28;20166;-54
2023/02/26 01:16:50;;;;;;;1.90;1.70;;;15.20;51.10;;;;;;5114574;28;20169;-55
2023/02/26 01:19:57;;;;;;;2.53;1.80;;;15.20;51.10;;;;;;5113151;28;20258;-52
2023/02/26 01:22:29;;;;;;;2.50;1.77;;;15.20;51.10;;;;;;5035553;28;20201;-53
2023/02/26 01:25:12;;;;;;;2.75;2.08;;;15.20;51.10;;;;;;5051616;28;20175;-53
2023/02/26 01:27:38;;;;;;;2.20;1.75;;;15.10;51.10;;;;;;5084746;28;20670;-54
2023/02/26 01:30:05;;;;;;;3.22;2.10;;;15.10;51.10;;;;;;5115433;28;20204;-54
2023/02/26 01:32:33;;;;;;;2.47;1.77;;;15.10;51.10;;;;;;5112532;28;20213;-49
2023/02/26 01:35:36;;;;;;;2.97;1.83;;;15.20;51.20;;;;;;5114828;28;20177;-51
2023/02/26 01:38:06;;;;;;;3.50;2.17;;;15.10;51.20;;;;;;5114834;28;20221;-54
2023/02/26 01:40:47;;;;;;;1.90;1.58;;;15.10;51.10;;;;;;5113998;28;20169;-51
2023/02/26 01:43:18;;;;;;;2.22;1.63;;;15.10;51.10;;;;;;5098028;28;20284;-55
2023/02/26 01:46:17;;;;;;;3.85;1.75;;;15.10;51.20;;;;;;5113127;28;20165;-54
2023/02/26 01:48:50;;;;;;;2.33;1.60;;;15.10;51.20;;;;;;5113246;28;20173;-49
2023/02/26 01:51:16;;;;;;;2.00;1.80;;;15.10;51.20;;;;;;5114298;28;20575;-49
2023/02/26 01:53:42;;;;;;;2.28;1.77;;;15.10;51.20;;;;;;5113487;28;20177;-48
2023/02/26 01:56:17;;;;;;;1.67;1.58;;;15.10;51.20;;;;;;5114207;28;20180;-50
2023/02/26 01:58:42;;;;;;;1.90;1.40;;;15.00;51.20;;;;;;5112734;28;20627;-54
2023/02/26 02:01:08;;;;;;;2.47;1.60;;;15.00;51.10;;;;;;5113477;28;20218;-55
2023/02/26 02:03:35;;;;;;;2.40;1.52;;;15.00;51.10;;;;;;5114123;28;20165;-55
2023/02/26 02:06:06;;;;;;;2.92;1.63;;;15.00;51.20;;;;;;5096282;28;20267;-55
2023/02/26 02:08:34;;;;;;;2.45;1.73;;;15.00;51.20;;;;;;5113114;28;20174;-55
2023/02/26 02:11:00;;;;;;;1.33;1.23;;;15.00;51.20;;;;;;5113882;28;20568;-54
2023/02/26 02:13:43;;;;;;;1.85;1.55;;;15.00;51.30;;;;;;5113091;28;20184;-54
2023/02/26 02:16:35;;;;;;;1.58;1.40;;;15.00;51.20;;;;;;5112435;28;20180;-55
2023/02/26 02:19:34;;;;;;;1.90;1.70;;;15.00;51.20;;;;;;5113649;28;20217;-53
2023/02/26 02:22:14;;;;;;;1.90;1.60;;;14.90;51.20;;;;;;5113366;28;20267;-55
2023/02/26 02:24:56;;;;;;;2.78;1.83;;;14.90;51.20;;;;;;5112567;28;20173;-54
2023/02/26 02:27:34;;;;;;;1.63;1.33;;;14.90;51.20;;;;;;5112560;28;20245;-53
2023/02/26 02:30:27;;;;;;;2.08;1.40;;;14.90;51.20;;;;;;5112221;28;20190;-53
2023/02/26 02:32:58;;;;;;;2.47;2.10;;;14.90;51.30;;;;;;5112686;28;20188;-54
2023/02/26 02:35:28;;;;;;;3.17;1.70;;;14.90;51.30;;;;;;5111915;28;20252;-53
2023/02/26 02:38:01;;;;;;;2.85;1.60;;;14.90;51.30;;;;;;5112152;28;20189;-52
2023/02/26 02:40:32;;;;;;;2.10;1.55;;;14.90;51.30;;;;;;5112671;28;20248;-55
2023/02/26 02:43:10;;;;;;;1.70;1.60;;;14.90;51.30;;;;;;5111796;28;20173;-54
2023/02/26 02:45:53;;;;;;;2.47;1.58;;;14.90;51.30;;;;;;5112250;28;20188;-54
2023/02/26 02:48:26;;;;;;;2.08;1.58;;;14.90;51.30;;;;;;5097587;28;20173;-54
2023/02/26 02:50:59;;;;;;;1.38;1.27;;;14.80;51.20;;;;;;5112565;28;20239;-51
2023/02/26 02:53:46;;;;;;;2.53;1.60;;;14.80;51.20;;;;;;5113615;28;20172;-52
2023/02/26 02:56:31;;;;;;;2.33;1.50;;;14.80;51.30;;;;;;5111286;28;20189;-51
2023/02/26 02:59:02;;;;;;;2.97;1.75;;;14.80;51.40;;;;;;5112028;28;20654;-51
2023/02/26 03:01:27;;;;;;;1.77;1.45;;;14.80;51.30;;;;;;5095790;28;20216;-51
2023/02/26 03:04:01;;;;;;;2.00;1.48;;;14.80;51.30;;;;;;5112253;28;20203;-53
2023/02/26 03:06:27;;;;;;;1.20;1.10;;;14.80;51.30;;;;;;5112172;28;20182;-50
2023/02/26 03:08:53;;;;;;;2.10;1.67;;;14.80;51.30;;;;;;5113011;28;20256;-51
2023/02/26 03:11:18;;;;;;;1.40;1.10;;;14.80;51.40;;;;;;5112464;28;20242;-50
2023/02/26 03:13:44;;;;;;;2.33;1.60;;;14.80;51.40;;;;;;5112943;28;20183;-51
2023/02/26 03:16:31;;;;;;;1.90;1.52;;;14.70;51.30;;;;;;5113250;28;20230;-51
2023/02/26 03:19:24;;;;;;;1.88;1.30;;;14.80;51.40;;;;;;5112412;28;20589;-52
2023/02/26 03:21:58;;;;;;;1.60;1.50;;;14.70;51.40;;;;;;5111877;28;20173;-51
2023/02/26 03:24:28;;;;;;;2.30;1.40;;;14.70;51.30;;;;;;5095355;28;20187;-49
2023/02/26 03:27:01;;;;;;;1.55;1.45;;;14.70;51.40;;;;;;5111871;28;20188;-49
2023/02/26 03:29:52;;;;;;;3.30;1.60;;;14.70;51.40;;;;;;5112096;28;20173;-51
2023/02/26 03:32:28;;;;;;;1.55;1.20;;;14.70;51.40;;;;;;5111318;28;20209;-50
2023/02/26 03:35:15;;;;;;;2.72;1.50;;;14.70;51.40;;;;;;5111627;28;20571;-51
2023/02/26 03:37:46;;;;;;;1.88;1.48;;;14.70;51.40;;;;;;5111489;28;20173;-54
2023/02/26 03:40:32;;;;;;;1.50;1.40;;;14.70;51.40;;;;;;5094901;28;20205;-51
2023/02/26 03:43:07;;;;;;;1.48;1.25;;;14.60;51.30;;;;;;5112478;28;20234;-53
2023/02/26 03:45:34;;;;;;;2.05;1.48;;;14.60;51.40;;;;;;5110807;28;20187;-52
2023/02/26 03:48:00;;;;;;;1.90;1.58;;;14.60;51.40;;;;;;5111803;28;20173;-53
2023/02/26 03:50:33;;;;;;;1.35;1.23;;;14.70;51.40;;;;;;5111698;28;20177;-49
2023/02/26 03:52:59;;;;;;;1.70;1.30;;;14.60;51.40;;;;;;5110959;28;20546;-48
2023/02/26 03:55:30;;;;;;;1.85;1.20;;;14.60;51.40;;;;;;5094833;28;20169;-53
2023/02/26 03:57:56;;;;;;;1.88;1.23;;;14.60;51.40;;;;;;5095091;28;20252;-52
2023/02/26 04:00:22;;;;;;;2.25;1.30;;;14.60;51.40;;;;;;5111032;28;20259;-50
2023/02/26 04:02:54;;;;;;;2.28;1.42;;;14.60;51.40;;;;;;5112586;28;20177;-51
2023/02/26 04:05:22;;;;;;;1.42;1.30;;;14.60;51.40;;;;;;5096680;28;20635;-54
2023/02/26 04:07:48;;;;;;;2.53;1.30;;;14.60;51.40;;;;;;5097478;28;20180;-54
2023/02/26 04:10:15;;;;;;;2.28;1.60;;;14.50;51.40;;;;;;5115475;28;20165;-55
2023/02/26 04:12:41;;;;;;;1.30;0.90;;;14.60;51.40;;;;;;5098312;28;20304;-49
2023/02/26 04:15:07;;;;;;;1.48;1.17;;;14.50;51.40;;;;;;5114506;28;20623;-51
2023/02/26 04:17:33;;;;;;;2.60;1.48;;;14.50;51.40;;;;;;5116237;28;20185;-54
2023/02/26 04:19:58;;;;;;;2.30;1.50;;;14.50;51.40;;;;;;5116033;28;20327;-54
2023/02/26 04:22:24;;;;;;;1.98;1.20;;;14.50;51.40;;;;;;5115464;28;20260;-53
2023/02/26 04:24:50;;;;;;;1.33;1.17;;;14.50;51.40;;;;;;5116051;28;20211;-51
2023/02/26 04:27:16;;;;;;;1.25;1.15;;;14.50;51.40;;;;;;5116311;28;20620;-49
2023/02/26 04:29:41;;;;;;;1.50;1.20;;;14.50;51.40;;;;;;5115063;28;20200;-50
2023/02/26 04:32:07;;;;;;;1.75;1.20;;;14.50;51.40;;;;;;5116018;28;20240;-50
2023/02/26 04:34:32;;;;;;;1.85;1.38;;;14.50;51.40;;;;;;5115356;28;20534;-54
2023/02/26 04:36:58;;;;;;;1.63;1.50;;;14.50;51.40;;;;;;5115778;28;20275;-50
2023/02/26 04:39:23;;;;;;;2.33;1.30;;;14.50;51.40;;;;;;5116079;28;20178;-51
2023/02/26 04:41:49;;;;;;;1.75;1.33;;;14.50;51.40;;;;;;5114969;28;20188;-55
2023/02/26 04:44:14;;;;;;;1.55;1.13;;;14.50;51.50;;;;;;5115802;28;20173;-52
2023/02/26 04:46:40;;;;;;;1.35;1.25;;;14.50;51.40;;;;;;5115544;28;20184;-50
2023/02/26 04:49:06;;;;;;;1.92;1.30;;;14.50;51.40;;;;;;5115043;28;20177;-54
2023/02/26 04:51:31;;;;;;;1.25;1.15;;;14.50;51.50;;;;;;5115569;28;20220;-54
2023/02/26 04:53:57;;;;;;;1.35;1.10;;;14.50;51.40;;;;;;5115800;28;20260;-53
2023/02/26 04:56:22;;;;;;;1.02;1.00;;;14.40;51.40;;;;;;5114949;28;20176;-49
2023/02/26 04:58:48;;;;;;;1.85;1.30;;;14.40;51.40;;;;;;5115415;28;20173;-52
2023/02/26 05:01:13;;;;;;;1.48;1.35;;;14.40;51.40;;;;;;5115705;28;20180;-51
2023/02/26 05:03:39;;;;;;;1.48;1.10;;;14.40;51.40;;;;;;5114490;28;20161;-53
2023/02/26 05:06:05;;;;;;;1.95;1.13;;;14.40;51.40;;;;;;5115401;28;20599;-54
2023/02/26 05:08:30;;;;;;;1.10;0.90;;;14.40;51.40;;;;;;5115306;28;20581;-54
2023/02/26 05:10:56;;;;;;;1.52;1.13;;;14.40;51.50;;;;;;5114461;28;20231;-56
2023/02/26 05:13:21;;;;;;;1.45;1.27;;;14.40;51.40;;;;;;5115142;28;20222;-50
2023/02/26 05:15:47;;;;;;;1.10;1.00;;;14.40;51.50;;;;;;5114665;28;20176;-54
2023/02/26 05:18:12;;;;;;;1.42;1.08;;;14.30;51.40;;;;;;5113570;28;20221;-54
2023/02/26 05:20:38;;;;;;;2.58;1.30;;;14.30;51.40;;;;;;5114734;28;20246;-53
2023/02/26 05:23:03;;;;;;;3.13;1.33;;;14.30;51.50;;;;;;5115228;28;20169;-52
2023/02/26 05:25:29;;;;;;;2.50;1.20;;;14.30;51.40;;;;;;5114572;28;20225;-51
2023/02/26 05:27:54;;;;;;;1.38;1.20;;;14.30;51.40;;;;;;5114826;28;20169;-54
2023/02/26 05:30:20;;;;;;;1.40;1.30;;;14.30;51.50;;;;;;5115124;28;20640;-51
2023/02/26 05:32:46;;;;;;;1.40;1.05;;;14.30;51.50;;;;;;5113778;28;20220;-55
2023/02/26 05:35:11;;;;;;;2.88;1.00;;;14.30;51.40;;;;;;5114731;28;20515;-54
2023/02/26 05:37:37;;;;;;;1.60;1.42;;;14.30;51.40;;;;;;5114653;28;20495;-54
2023/02/26 05:40:04;;;;;;;3.17;1.30;;;14.30;51.40;;;;;;5113927;28;20624;-54
2023/02/26 05:42:29;;;;;;;1.98;1.25;;;14.30;51.50;;;;;;5114704;28;20260;-54
2023/02/26 05:44:56;;;;;;;1.48;1.38;;;14.20;51.40;;;;;;5113683;28;20598;-55
2023/02/26 05:47:22;;;;;;;1.73;1.30;;;14.30;51.50;;;;;;5114560;28;20200;-54
2023/02/26 05:49:47;;;;;;;1.00;0.90;;;14.30;51.50;;;;;;5114136;28;20636;-54
2023/02/26 05:52:13;;;;;;;2.35;1.35;;;14.30;51.50;;;;;;5113844;28;20258;-53
2023/02/26 05:54:38;;;;;;;2.05;1.00;;;14.30;51.50;;;;;;5114532;28;20178;-52
2023/02/26 05:57:04;;;;;;;1.80;1.27;;;14.40;51.50;;;;;;5114479;28;20256;-52
2023/02/26 05:59:29;;;;;;;2.08;1.10;;;14.40;51.50;;;;;;5113755;28;20574;-54
2023/02/26 06:01:55;;;;;;;1.63;1.35;;;14.40;51.40;;;;;;5114019;28;20247;-55
2023/02/26 06:04:20;;;;;;;1.15;1.05;;;14.40;51.30;;;;;;5114416;28;20225;-55
2023/02/26 06:06:46;;;;;;;1.85;1.17;;;14.40;51.30;;;;;;5113387;28;20181;-55
2023/02/26 06:09:11;;;;;;;1.17;1.02;;;14.50;51.20;;;;;;5114276;28;20169;-54
2023/02/26 06:11:39;;;;;;;1.17;1.02;;;14.60;51.00;;;;;;5113618;28;20307;-52
2023/02/26 06:14:04;;;;;;;1.75;1.05;;;14.70;51.00;;;;;;5113502;28;20177;-52
2023/02/26 06:16:31;;;;;;;1.10;1.00;;;14.90;50.80;;;;;;5114326;28;20179;-50
2023/02/26 06:18:57;;;;;;;1.25;1.15;;;15.10;50.60;;;;;;5113806;28;20248;-54
2023/02/26 06:21:22;;;;;;;1.08;0.95;;;15.20;50.40;;;;;;5113503;28;20208;-50
2023/02/26 06:23:48;;;;;;;2.63;1.13;;;15.40;50.20;;;;;;5113824;28;20606;-51
2023/02/26 06:26:13;;;;;;;1.00;0.93;;;15.60;50.10;;;;;;5114010;28;20246;-50
2023/02/26 06:28:39;;;;;;;1.45;1.02;;;15.70;49.70;;;;;;5112850;28;20523;-52
2023/02/26 06:31:04;;;;;;;0.77;0.75;;;15.90;49.60;;;;;;5113715;28;20205;-54
2023/02/26 06:33:30;;;;;;;0.95;0.90;;;15.90;49.40;;;;;;5113687;28;20203;-49
2023/02/26 06:35:56;;;;;;;1.08;0.80;;;16.00;49.20;;;;;;5112891;28;20246;-52
2023/02/26 06:38:22;;;;;;;0.70;0.70;;;16.10;49.10;;;;;;5113861;28;20185;-55
2023/02/26 06:40:48;;;;;;;0.75;0.70;;;16.20;49.10;;;;;;5113451;28;20176;-55
2023/02/26 06:43:13;;;;;;;1.00;0.90;;;16.20;48.90;;;;;;5111699;28;20169;-52
2023/02/26 06:45:39;;;;;;;0.77;0.75;;;16.30;49.00;;;;;;5113409;28;20173;-54
2023/02/26 06:48:04;;;;;;;1.25;0.90;;;16.20;49.10;;;;;;5113531;28;20191;-50
2023/02/26 06:50:30;;;;;;;1.48;0.73;;;16.20;49.10;;;;;;5112922;28;20204;-50
2023/02/26 06:52:56;;;;;;;1.70;0.88;;;16.20;49.10;;;;;;5113114;28;20613;-51
2023/02/26 06:55:25;;;;;;;1.73;0.98;;;16.30;49.00;;;;;;5112832;28;20173;-53
2023/02/26 06:57:54;;;;;;;1.00;0.90;;;16.30;49.10;;;;;;5113361;28;20169;-50
2023/02/26 07:00:20;;;;;;;1.02;0.95;;;16.30;49.20;;;;;;5113322;28;20706;-50
2023/02/26 07:02:45;;;;;;;1.55;0.80;;;16.40;49.10;;;;;;5112212;28;20272;-54
2023/02/26 07:05:11;;;;;;;1.10;0.98;;;16.50;48.90;;;;;;5113335;28;20204;-52
2023/02/26 07:07:36;;;;;;;1.33;1.08;;;16.70;48.70;;;;;;5113129;28;20208;-54
2023/02/26 07:10:02;;;;;;;0.70;0.70;;;16.90;48.40;;;;;;5112692;28;20577;-54
2023/02/26 07:12:28;;;;;;;1.42;0.77;;;17.10;48.00;;;;;;5113276;28;20205;-54
2023/02/26 07:14:53;;;;;;;0.60;0.60;;;17.20;47.90;;;;;;5112678;28;20653;-53
2023/02/26 07:17:19;;;;;;;1.38;0.93;;;17.30;47.90;;;;;;5112454;28;20276;-54
2023/02/26 07:19:48;;;;;;;1.25;0.90;;;17.40;47.70;;;;;;5112851;28;20308;-51
2023/02/26 07:22:14;;;;;;;1.17;0.75;;;17.40;47.70;;;;;;5113312;28;20282;-53
2023/02/26 07:24:41;;;;;;;1.05;0.80;;;17.50;47.70;;;;;;5112271;28;20643;-51
2023/02/26 07:27:06;;;;;;;0.98;0.90;;;17.50;47.60;;;;;;5113169;28;20180;-49
2023/02/26 07:29:32;;;;;;;1.05;0.68;;;17.50;47.60;;;;;;5112706;28;20202;-53
2023/02/26 07:31:57;;;;;;;1.17;0.82;;;17.50;47.60;;;;;;5112515;28;20283;-52
2023/02/26 07:34:23;;;;;;;0.73;0.73;;;17.50;47.70;;;;;;5113269;28;20642;-54
2023/02/26 07:36:49;;;;;;;0.80;0.80;;;17.50;47.70;;;;;;5112813;28;20524;-54
2023/02/26 07:39:14;;;;;;;1.45;0.95;;;17.50;47.70;;;;;;5112378;28;20559;-53
2023/02/26 07:41:40;;;;;;;0.90;0.70;;;17.50;47.70;;;;;;5116621;28;20177;-53
2023/02/26 07:44:05;;;;;;;1.42;1.00;;;17.40;47.70;;;;;;5116997;28;20168;-51
2023/02/26 07:46:31;;;;;;;1.10;0.93;;;17.40;48.00;;;;;;5116052;28;20187;-52
2023/02/26 07:48:56;;;;;;;0.93;0.85;;;17.40;48.10;;;;;;5117000;28;20635;-55
2023/02/26 07:51:22;;;;;;;0.85;0.60;;;17.40;48.10;;;;;;5116711;28;20213;-53
2023/02/26 07:53:47;;;;;;;0.73;0.68;;;17.40;48.30;;;;;;5115856;28;20169;-53
2023/02/26 07:56:13;;;;;;;1.40;0.70;;;17.40;48.30;;;;;;5116971;28;20204;-54
2023/02/26 07:58:38;;;;;;;1.65;1.00;;;17.30;48.30;;;;;;5115796;28;20222;-54
2023/02/26 08:01:04;;;;;;;0.82;0.70;;;17.30;48.40;;;;;;5116570;28;20177;-51
2023/02/26 08:03:31;;;;;;;0.93;0.70;;;17.30;48.40;;;;;;5116687;28;20162;-52
2023/02/26 08:05:59;;;;;;;1.10;0.80;;;17.30;48.50;;;;;;5115762;28;20188;-53
2023/02/26 08:08:25;;;;;;;0.70;0.68;;;17.20;49.20;;;;;;5116605;28;20169;-54
2023/02/26 08:10:50;;;;;;;0.80;0.60;;;17.20;48.70;;;;;;5116439;28;20209;-50
2023/02/26 08:13:16;;;;;;;1.10;0.70;;;17.10;48.80;;;;;;5115690;28;20593;-54
2023/02/26 08:15:42;;;;;;;1.02;0.82;;;17.10;48.90;;;;;;5116026;28;20250;-53
2023/02/26 08:18:08;;;;;;;1.00;0.70;;;17.10;48.90;;;;;;5116239;28;20213;-51
2023/02/26 08:20:34;;;;;;;1.27;0.77;;;17.20;49.00;;;;;;5115424;28;20173;-55
2023/02/26 08:22:59;;;;;;;0.95;0.57;;;17.20;49.00;;;;;;5116231;28;20222;-55
2023/02/26 08:25:25;;;;;;;2.00;0.75;;;17.20;48.90;;;;;;5116260;28;20172;-50
2023/02/26 08:27:51;;;;;;;0.68;0.68;;;17.30;48.90;;;;;;5115226;28;20664;-49
2023/02/26 08:30:16;;;;;;;1.10;0.68;;;17.30;48.90;;;;;;5116209;28;20177;-51
2023/02/26 08:32:42;;;;;;;0.98;0.75;;;17.30;49.60;;;;;;5115713;28;20220;-53
2023/02/26 08:35:08;;;;;;;1.42;0.82;;;17.40;48.90;;;;;;5115215;28;20169;-54
2023/02/26 08:37:34;;;;;;;0.70;0.55;;;17.40;49.00;;;;;;5115470;28;20174;-55
2023/02/26 08:40:00;;;;;;;0.60;0.60;;;17.40;48.90;;;;;;5115796;28;20180;-55
2023/02/26 08:42:25;;;;;;;0.80;0.70;;;17.50;49.00;;;;;;5115182;28;20173;-54
2023/02/26 08:44:51;;;;;;;0.85;0.63;;;17.40;48.90;;;;;;5115439;28;20515;-51
2023/02/26 08:47:16;;;;;;;0.68;0.60;;;17.40;49.00;;;;;;5115936;28;20177;-70
2023/02/26 08:49:42;;;;;;;1.30;0.70;;;17.40;49.10;;;;;;5114758;28;20169;-71
2023/02/26 08:52:07;;;;;;;2.88;0.95;;;17.40;49.10;;;;;;5115609;28;20209;-69
2023/02/26 08:54:33;;;;;;;2.55;0.70;;;17.40;49.60;;;;;;5115323;28;20169;-64
2023/02/26 08:56:58;;;;;;;1.33;1.20;;;17.30;49.90;;;;;;5114647;28;20169;-63
2023/02/26 08:59:24;;;;;;;3.15;0.85;;;17.30;50.20;;;;;;5115414;28;20177;-68
2023/02/26 09:01:50;;;;;;;1.77;0.73;;;17.30;50.20;;;;;;5114301;28;20251;-63
2023/02/26 09:04:15;;;;;;;2.15;0.90;;;17.40;50.20;;;;;;5115036;28;20683;-62
2023/02/26 09:06:41;;;;;;;2.97;0.90;;;17.40;50.20;;;;;;5114528;28;20209;-62
2023/02/26 09:09:06;;;;;;;1.83;0.98;;;17.40;50.30;;;;;;5114334;28;20185;-63
2023/02/26 09:11:32;;;;;;;1.17;0.70;;;17.50;50.30;;;;;;5114883;27;20197;-64
2023/02/26 09:13:57;;;;;;;3.10;0.88;;;17.40;50.30;;;;;;5128928;27;20172;-62
2023/02/26 09:16:23;;;;;;;1.27;0.57;;;17.40;50.40;;;;;;5122022;27;20177;-63
2023/02/26 09:18:49;;;;;;;3.13;0.93;;;17.40;50.50;;;;;;5114625;28;20229;-62
2023/02/26 09:21:14;;;;;;;1.70;0.70;;;17.30;50.50;;;;;;5132930;27;20210;-62
2023/02/26 09:23:40;;;;;;;1.65;0.70;;;17.40;50.60;;;;;;5134435;27;20175;-62
2023/02/26 09:26:07;;;;;;;3.00;0.80;;;17.30;50.60;;;;;;5135291;27;20266;-63
2023/02/26 09:28:33;;;;;;;3.95;1.30;;;17.30;50.70;;;;;;5127431;27;20177;-63
2023/02/26 09:30:58;;;;;;;2.28;1.00;;;17.20;50.70;;;;;;5114186;28;20543;-63
2023/02/26 09:33:24;;;;;;;1.55;0.50;;;17.20;50.70;;;;;;5114850;28;20283;-64
2023/02/26 09:35:50;;;;;;;0.98;0.73;;;17.30;50.80;;;;;;5114605;28;20188;-63
2023/02/26 09:38:16;;;;;;;0.73;0.60;;;17.30;50.70;;;;;;5112580;28;20173;-62
2023/02/26 09:40:43;;;;;;;1.45;0.70;;;17.20;50.70;;;;;;5114075;28;20177;-63
2023/02/26 09:43:24;;;;;;;1.25;0.60;;;17.30;50.80;;;;;;5113040;28;20177;-62
2023/02/26 09:45:49;;;;;;;1.10;0.70;;;17.20;50.70;;;;;;5122504;27;20172;-63
2023/02/26 09:48:16;;;;;;;2.08;0.90;;;17.30;50.80;;;;;;5134876;27;20168;-63
2023/02/26 09:50:49;;;;;;;1.65;0.80;;;17.20;50.70;;;;;;5133148;27;20210;-62
2023/02/26 09:53:18;;;;;;;0.98;0.68;;;17.20;50.80;;;;;;5132583;27;20180;-62
2023/02/26 09:55:46;;;;;;;0.70;0.70;;;17.20;50.80;;;;;;5115147;27;20180;-63
2023/02/26 09:58:36;;;;;;;0.98;0.70;;;17.20;50.70;;;;;;5112108;28;20185;-63
2023/02/26 10:01:15;;;;;;;3.08;1.23;;;17.20;50.70;;;;;;5114305;28;20184;-63
2023/02/26 10:04:05;;;;;;;1.70;0.80;;;17.30;50.80;;;;;;5113114;28;20538;-64
2023/02/26 10:06:56;;;;;;;1.05;0.70;;;17.30;50.80;;;;;;5113557;28;20169;-62
2023/02/26 10:09:40;;;;;;;2.05;0.88;;;17.30;50.80;;;;;;5114172;28;20173;-61
2023/02/26 10:12:05;;;;;;;1.20;0.50;;;17.30;50.80;;;;;;5113635;28;20207;-62
2023/02/26 10:14:37;;;;;;;1.48;0.80;;;17.30;50.90;;;;;;5113095;28;20177;-62
2023/02/26 10:17:52;;;;;;;1.15;0.50;;;17.30;50.80;;;;;;5112661;28;20173;-62
2023/02/26 10:20:35;;;;;;;1.67;0.80;;;17.30;50.80;;;;;;5103274;28;20208;-63
2023/02/26 10:23:22;;;;;;;1.77;0.70;;;17.30;50.80;;;;;;5114006;28;20180;-63
2023/02/26 10:26:11;;;;;;;2.25;0.70;;;17.30;50.80;;;;;;5111949;28;20631;-63
2023/02/26 10:28:45;;;;;;;1.27;0.90;;;17.40;50.90;;;;;;5112099;28;20169;-68
2023/02/26 10:31:26;;;;;;;2.45;0.80;;;17.40;51.00;;;;;;5112355;28;20832;-69
2023/02/26 10:33:58;;;;;;;1.98;0.85;;;17.30;51.20;;;;;;5110723;28;20681;-69
2023/02/26 10:36:27;;;;;;;2.40;0.70;;;17.30;51.20;;;;;;5112306;28;20225;-64
2023/02/26 10:39:10;;;;;;;0.93;0.57;;;17.30;51.20;;;;;;5111682;28;20199;-64
2023/02/26 10:41:36;;;;;;;2.35;0.98;;;17.30;51.10;;;;;;5111192;28;20643;-63
2023/02/26 10:44:20;;;;;;;1.60;0.68;;;17.30;51.10;;;;;;5113276;28;20432;-63
2023/02/26 10:47:01;;;;;;;1.50;0.70;;;17.30;51.00;;;;;;5112999;28;20647;-63
2023/02/26 10:49:36;;;;;;;1.02;0.68;;;17.20;51.10;;;;;;5112658;28;20666;-63
2023/02/26 10:52:10;;;;;;;1.48;0.60;;;17.20;51.10;;;;;;5112201;28;20244;-63
2023/02/26 10:54:37;;;;;;;1.40;0.60;;;17.20;51.10;;;;;;5111190;28;20172;-63
2023/02/26 10:57:03;;;;;;;1.75;0.60;;;17.20;51.10;;;;;;5112230;28;20168;-64
2023/02/26 10:59:29;;;;;;;1.30;0.55;;;17.30;51.10;;;;;;5113254;28;20591;-65
2023/02/26 11:01:54;;;;;;;1.45;0.88;;;17.20;51.10;;;;;;5112224;28;20201;-64
2023/02/26 11:04:25;;;;;;;0.88;0.60;;;17.30;51.10;;;;;;5111710;28;20173;-63
2023/02/26 11:06:55;;;;;;;1.73;0.68;;;17.30;51.10;;;;;;5111869;28;20208;-63
2023/02/26 11:09:26;;;;;;;1.40;0.70;;;17.30;51.00;;;;;;5111179;28;20257;-64
2023/02/26 11:12:12;;;;;;;1.40;0.60;;;17.30;50.90;;;;;;5111737;28;20521;-64
2023/02/26 11:14:38;;;;;;;1.95;0.55;;;17.30;50.80;;;;;;5113129;28;20654;-64
2023/02/26 11:17:21;;;;;;;0.45;0.40;;;17.30;50.80;;;;;;5116619;28;20177;-63
2023/02/26 11:20:11;;;;;;;1.27;0.55;;;17.40;50.80;;;;;;5115636;28;20221;-63
2023/02/26 11:22:36;;;;;;;1.00;0.60;;;17.40;50.80;;;;;;5115083;28;20708;-63
2023/02/26 11:25:02;;;;;;;1.27;0.70;;;17.30;50.80;;;;;;5116145;28;20185;-64
2023/02/26 11:27:35;;;;;;;0.98;0.70;;;17.20;50.90;;;;;;5115898;28;20177;-64
2023/02/26 11:30:17;;;;;;;1.08;0.73;;;17.10;51.10;;;;;;5115169;28;20195;-64
2023/02/26 11:32:44;;;;;;;1.25;0.65;;;17.10;51.10;;;;;;5116570;28;20622;-64
2023/02/26 11:35:12;;;;;;;0.70;0.68;;;17.10;51.10;;;;;;5116979;28;20181;-64
2023/02/26 11:37:39;;;;;;;1.30;0.63;;;17.00;51.20;;;;;;5115874;28;20173;-64
2023/02/26 11:40:22;;;;;;;0.93;0.50;;;17.10;51.10;;;;;;5115603;28;20643;-64
2023/02/26 11:42:56;;;;;;;0.82;0.52;;;17.00;51.10;;;;;;5116703;28;20183;-64
2023/02/26 11:45:22;;;;;;;0.90;0.70;;;17.10;51.00;;;;;;5115006;28;20216;-64
2023/02/26 11:47:48;;;;;;;1.52;0.63;;;17.20;50.90;;;;;;5116533;28;20200;-63
2023/02/26 11:50:17;;;;;;;1.27;0.70;;;17.30;50.80;;;;;;5116409;28;20180;-63
2023/02/26 11:52:45;;;;;;;1.50;0.70;;;17.30;50.70;;;;;;5114318;28;20619;-63
2023/02/26 11:55:27;;;;;;;0.90;0.80;;;17.30;50.70;;;;;;5116840;28;20208;-63
2023/02/26 11:57:53;;;;;;;1.13;0.60;;;17.40;50.70;;;;;;5115693;28;20177;-65
2023/02/26 12:00:39;;;;;;;0.75;0.70;;;17.40;50.60;;;;;;5116549;28;20636;-65
2023/02/26 12:03:09;;;;;;;1.15;0.70;;;17.30;50.70;;;;;;5116173;28;20272;-64
2023/02/26 12:05:35;;;;;;;0.70;0.40;;;17.40;51.30;;;;;;5114102;28;20174;-64
2023/02/26 12:08:01;;;;;;;1.27;0.70;;;17.30;50.60;;;;;;5115295;28;20526;-64
2023/02/26 12:10:49;;;;;;;1.52;0.85;;;17.40;50.70;;;;;;5115184;28;20181;-64
2023/02/26 12:13:25;;;;;;;1.05;0.68;;;17.30;50.60;;;;;;5104242;28;20200;-64
2023/02/26 12:16:19;;;;;;;0.55;0.55;;;17.40;50.70;;;;;;5114713;28;20650;-63
2023/02/26 12:18:51;;;;;;;0.52;0.40;;;17.30;50.60;;;;;;5101255;28;20240;-64
2023/02/26 12:21:56;;;;;;;1.20;0.50;;;17.40;50.70;;;;;;5114809;28;20169;-63
2023/02/26 12:25:03;;;;;;;0.70;0.50;;;17.40;50.60;;;;;;5084158;27;20580;-64
2023/02/26 12:27:50;;;;;;;1.08;0.70;;;17.30;50.70;;;;;;5113577;28;20583;-64
2023/02/26 12:30:37;;;;;;;0.73;0.50;;;17.30;50.70;;;;;;5116195;28;20177;-64
2023/02/26 12:33:29;;;;;;;0.70;0.60;;;17.30;50.70;;;;;;5115159;28;20227;-64
2023/02/26 12:36:01;;;;;;;1.15;0.50;;;17.30;50.70;;;;;;5114505;28;20177;-65
2023/02/26 12:38:49;;;;;;;1.17;0.40;;;17.30;50.70;;;;;;5114668;28;20173;-64
2023/02/26 12:41:23;;;;;;;2.08;0.65;;;17.30;50.70;;;;;;5084289;28;20667;-64
2023/02/26 12:43:55;;;;;;;0.88;0.50;;;17.20;50.70;;;;;;5115381;28;20523;-64
2023/02/26 12:46:57;;;;;;;1.30;0.70;;;17.20;50.70;;;;;;5114450;28;20183;-63
2023/02/26 12:49:45;;;;;;;0.60;0.55;;;17.30;50.80;;;;;;5114517;28;20660;-63
2023/02/26 12:52:37;;;;;;;0.43;0.40;;;17.20;50.70;;;;;;5114435;28;20212;-64
2023/02/26 12:55:06;;;;;;;0.65;0.50;;;17.20;50.70;;;;;;5113805;28;20252;-64
2023/02/26 12:57:49;;;;;;;1.10;0.60;;;17.10;50.80;;;;;;5115467;28;20180;-64
2023/02/26 13:00:50;;;;;;;0.38;0.38;;;17.10;51.00;;;;;;5114272;28;20177;-65
2023/02/26 13:03:40;;;;;;;0.73;0.50;;;17.10;50.90;;;;;;5114567;28;20176;-64
2023/02/26 13:06:30;;;;;;;0.43;0.40;;;17.10;50.80;;;;;;5114903;27;20169;-64
2023/02/26 13:09:05;;;;;;;0.47;0.40;;;17.20;50.70;;;;;;5114146;28;20173;-63